Time,TemperatureF,DewpointF,PressureIn,WindDirection,WindDirectionDegrees,WindSpeedMPH,WindSpeedGustMPH,Humidity,HourlyPrecipIn,Conditions,Clouds,dailyrainin,SoftwareType,DateUTC
2013-11-04 00:00:00,45.0,-99.9,-100.00,SE,141,15.0,20.0,-999,0.00,,,0.00,,2013-11-04 06:00:00,
2013-11-04 00:52:00,45.0,-99.9,-100.00,SE,141,15.0,20.0,-999,0.00,,,0.00,,2013-11-04 06:52:00,
2013-11-04 01:00:00,44.0,-99.9,-100.00,SE,135,15.0,18.0,-999,0.00,,,0.00,,2013-11-04 07:00:00,
2013-11-04 01:52:00,44.0,-99.9,-100.00,SE,135,15.0,18.0,-999,0.00,,,0.00,,2013-11-04 07:52:00,
2013-11-04 02:00:00,45.0,-99.9,-100.00,SE,145,16.0,19.0,-999,0.00,,,0.00,,2013-11-04 08:00:00,
2013-11-04 02:52:00,45.0,-99.9,-100.00,SE,145,16.0,19.0,-999,0.00,,,0.00,,2013-11-04 08:52:00,
2013-11-04 03:00:00,44.0,-99.9,-100.00,SE,144,17.0,21.0,-999,0.00,,,0.00,,2013-11-04 09:00:00,
2013-11-04 03:53:00,44.0,-99.9,-100.00,SE,144,17.0,21.0,-999,0.00,,,0.00,,2013-11-04 09:53:00,
2013-11-04 04:00:00,45.0,-99.9,-100.00,SE,145,17.0,22.0,-999,0.00,,,0.00,,2013-11-04 10:00:00,
2013-11-04 04:52:00,45.0,-99.9,-100.00,SE,145,17.0,22.0,-999,0.00,,,0.00,,2013-11-04 10:52:00,
2013-11-04 05:00:00,44.0,-99.9,-100.00,SE,144,16.0,22.0,-999,0.00,,,0.00,,2013-11-04 11:00:00,
2013-11-04 05:52:00,44.0,-99.9,-100.00,SE,144,16.0,22.0,-999,0.00,,,0.00,,2013-11-04 11:52:00,
2013-11-04 06:00:00,45.0,-99.9,-100.00,SSE,155,17.0,27.0,-999,0.00,,,0.00,,2013-11-04 12:00:00,
2013-11-04 06:52:00,45.0,-99.9,-100.00,SSE,155,17.0,27.0,-999,0.00,,,0.00,,2013-11-04 12:52:00,
2013-11-04 07:00:00,45.0,-99.9,-100.00,SE,145,16.0,21.0,-999,0.00,,,0.00,,2013-11-04 13:00:00,
2013-11-04 07:52:00,45.0,-99.9,-100.00,SE,145,16.0,21.0,-999,0.00,,,0.00,,2013-11-04 13:52:00,
2013-11-04 08:00:00,47.0,-99.9,-100.00,SSE,149,17.0,22.0,-999,0.00,,,0.00,,2013-11-04 14:00:00,
2013-11-04 08:52:00,47.0,-99.9,-100.00,SSE,149,17.0,22.0,-999,0.00,,,0.00,,2013-11-04 14:52:00,
2013-11-04 09:00:00,48.0,-99.9,-100.00,SSE,161,21.0,30.0,-999,0.00,,,0.00,,2013-11-04 15:00:00,
2013-11-04 09:52:00,48.0,-99.9,-100.00,SSE,161,21.0,30.0,-999,0.00,,,0.00,,2013-11-04 15:52:00,
2013-11-04 11:00:00,54.0,-99.9,-100.00,South,178,18.0,34.0,-999,0.00,,,0.00,,2013-11-04 17:00:00,
2013-11-04 11:53:00,54.0,-99.9,-100.00,South,178,18.0,34.0,-999,0.00,,,0.00,,2013-11-04 17:53:00,
2013-11-04 13:00:00,58.0,-99.9,-100.00,SSW,203,14.0,28.0,-999,0.00,,,0.00,,2013-11-04 19:00:00,
2013-11-04 13:52:00,58.0,-99.9,-100.00,SSW,203,14.0,28.0,-999,0.00,,,0.00,,2013-11-04 19:52:00,
2013-11-04 14:00:00,57.0,-99.9,-100.00,SW,220,12.0,24.0,-999,0.00,,,0.00,,2013-11-04 20:00:00,
2013-11-04 14:53:00,57.0,-99.9,-100.00,SW,220,12.0,24.0,-999,0.00,,,0.00,,2013-11-04 20:53:00,
2013-11-04 15:00:00,58.0,-99.9,-100.00,SSW,212,12.0,20.0,-999,0.00,,,0.00,,2013-11-04 21:00:00,
2013-11-04 15:54:00,58.0,-99.9,-100.00,SSW,212,12.0,20.0,-999,0.00,,,0.00,,2013-11-04 21:54:00,
2013-11-04 16:00:00,57.0,-99.9,-100.00,SSW,211,12.0,29.0,-999,0.00,,,0.00,,2013-11-04 22:00:00,
2013-11-04 16:53:00,57.0,-99.9,-100.00,SSW,211,12.0,29.0,-999,0.00,,,0.00,,2013-11-04 22:53:00,
2013-11-04 17:00:00,55.0,-99.9,-100.00,South,186,9.0,20.0,-999,0.00,,,0.00,,2013-11-04 23:00:00,
2013-11-04 17:53:00,55.0,-99.9,-100.00,South,186,9.0,20.0,-999,0.00,,,0.00,,2013-11-04 23:53:00,
2013-11-04 18:00:00,55.0,-99.9,-100.00,SSW,210,5.0,17.0,-999,0.00,,,0.00,,2013-11-05 00:00:00,
2013-11-04 18:52:00,55.0,-99.9,-100.00,SSW,210,5.0,17.0,-999,0.00,,,0.00,,2013-11-05 00:52:00,
2013-11-04 19:00:00,54.0,-99.9,-100.00,SW,224,6.0,12.0,-999,0.00,,,0.00,,2013-11-05 01:00:00,
2013-11-04 19:52:00,54.0,-99.9,-100.00,SW,224,6.0,12.0,-999,0.00,,,0.00,,2013-11-05 01:52:00,
2013-11-04 20:00:00,53.0,-99.9,-100.00,SW,217,5.0,11.0,-999,0.00,,,0.00,,2013-11-05 02:00:00,
2013-11-04 20:52:00,53.0,-99.9,-100.00,SW,217,5.0,11.0,-999,0.00,,,0.00,,2013-11-05 02:52:00,
2013-11-04 21:00:00,53.0,-99.9,-100.00,SW,218,6.0,13.0,-999,0.00,,,0.00,,2013-11-05 03:00:00,
2013-11-04 21:54:00,53.0,-99.9,-100.00,SW,218,6.0,13.0,-999,0.00,,,0.00,,2013-11-05 03:54:00,
2013-11-04 22:00:00,53.0,-99.9,-100.00,SW,222,6.0,11.0,-999,0.00,,,0.00,,2013-11-05 04:00:00,
2013-11-04 22:53:00,53.0,-99.9,-100.00,SW,222,6.0,11.0,-999,0.00,,,0.00,,2013-11-05 04:53:00,
2013-11-04 23:00:00,53.0,-99.9,-100.00,SW,217,7.0,11.0,-999,0.00,,,0.00,,2013-11-05 05:00:00,
2013-11-04 23:54:00,53.0,-99.9,-100.00,SW,217,7.0,11.0,-999,0.00,,,0.00,,2013-11-05 05:54:00,